Time;durP1;ratioP1;P1;durP2;ratioP2;P2;SDS_P1;SDS_P2;PMS_P1;PMS_P2;Temp;Humidity;BMP_temperature;BMP_pressure;BME280_temperature;BME280_humidity;BME280_pressure;Samples;Min_cycle;Max_cycle;Signal;HPM_P1;HPM_P2
2021/08/03 00:00:40;;;;;;;6.95;4.10;;;;;;;13.65;67.64;100350.56;1752820;81;21097;-78
2021/08/03 00:03:08;;;;;;;5.33;3.60;;;;;;;13.63;67.60;100347.22;1753070;81;20995;-77
2021/08/03 00:05:38;;;;;;;4.83;2.83;;;;;;;13.65;67.58;100355.92;1753367;81;21078;-77
2021/08/03 00:08:12;;;;;;;5.95;2.75;;;;;;;13.63;67.52;100349.40;1753298;81;21582;-77
2021/08/03 00:10:38;;;;;;;7.75;3.00;;;;;;;13.60;67.49;100350.29;1753057;81;21021;-78
2021/08/03 00:13:04;;;;;;;5.33;3.27;;;;;;;13.57;67.46;100358.72;1752975;81;21149;-77
2021/08/03 00:15:30;;;;;;;8.98;4.22;;;;;;;13.53;67.46;100360.11;1753058;81;21026;-77
2021/08/03 00:17:57;;;;;;;9.65;4.78;;;;;;;13.49;67.43;100360.49;1753139;81;21015;-78
2021/08/03 00:20:25;;;;;;;10.25;6.55;;;;;;;13.45;67.44;100367.25;1753286;81;20999;-78
2021/08/03 00:22:54;;;;;;;8.33;4.95;;;;;;;13.40;67.43;100365.66;1753021;81;21062;-77
2021/08/03 00:25:21;;;;;;;6.15;4.20;;;;;;;13.36;67.42;100365.71;1752875;81;21176;-77
2021/08/03 00:27:47;;;;;;;9.58;4.62;;;;;;;13.31;67.45;100368.62;1727918;81;20995;-78
2021/08/03 00:30:13;;;;;;;8.33;3.75;;;;;;;13.25;67.46;100364.02;1752939;81;21554;-78
2021/08/03 00:32:39;;;;;;;8.08;3.55;;;;;;;13.21;67.48;100367.58;1753075;81;21077;-78
2021/08/03 00:35:06;;;;;;;11.93;5.05;;;;;;;13.13;67.54;100366.84;1753157;81;21017;-78
2021/08/03 00:37:33;;;;;;;9.40;4.92;;;;;;;13.05;67.63;100371.79;1753220;81;21414;-77
2021/08/03 00:39:59;;;;;;;8.05;4.58;;;;;;;12.96;67.72;100376.91;1753192;81;21475;-77
2021/08/03 00:42:25;;;;;;;8.48;3.77;;;;;;;12.86;67.85;100371.00;1752941;81;21031;-77
2021/08/03 00:44:51;;;;;;;9.98;4.80;;;;;;;12.80;67.95;100369.08;1753161;81;20995;-77
2021/08/03 00:47:19;;;;;;;8.63;4.30;;;;;;;12.73;68.05;100370.83;1753058;81;21019;-77
2021/08/03 00:49:45;;;;;;;14.03;5.25;;;;;;;12.67;68.17;100368.87;1753123;81;21152;-77
2021/08/03 00:52:13;;;;;;;6.20;3.62;;;;;;;12.62;68.29;100373.45;1752833;81;21050;-77
2021/08/03 00:54:39;;;;;;;7.28;3.25;;;;;;;12.60;68.38;100374.62;1753146;81;20991;-77
2021/08/03 00:57:08;;;;;;;8.00;3.75;;;;;;;12.58;68.48;100369.98;1753146;81;21007;-77
2021/08/03 00:59:34;;;;;;;9.53;3.80;;;;;;;12.52;68.59;100364.34;1719072;82;21082;-78
2021/08/03 01:02:06;;;;;;;6.30;3.27;;;;;;;12.51;68.70;100370.72;1753093;81;21130;-77
2021/08/03 01:04:32;;;;;;;6.25;3.80;;;;;;;12.51;68.80;100372.06;1752699;81;20999;-77
2021/08/03 01:07:22;;;;;;;8.08;3.67;;;;;;;12.50;68.89;100371.73;1753124;81;21035;-77
2021/08/03 01:10:37;;;;;;;5.20;3.42;;;;;;;12.48;69.00;100376.45;1752970;81;21058;-77
2021/08/03 01:13:14;;;;;;;6.70;3.72;;;;;;;12.43;69.14;100372.64;1745424;80;21082;-77
2021/08/03 01:16:27;;;;;;;5.83;3.67;;;;;;;12.38;69.28;100375.87;1753259;81;21228;-78
2021/08/03 01:19:42;;;;;;;6.92;3.87;;;;;;;12.37;69.39;100377.38;1753091;81;20979;-78
2021/08/03 01:22:20;;;;;;;7.42;4.00;;;;;;;12.33;69.52;100371.57;1755427;81;21061;-78
2021/08/03 01:25:09;;;;;;;7.03;3.60;;;;;;;12.29;69.67;100372.11;1761661;81;21046;-78
2021/08/03 01:28:04;;;;;;;9.73;4.87;;;;;;;12.23;69.76;100372.84;1761905;81;21053;-78
2021/08/03 01:30:31;;;;;;;8.65;4.55;;;;;;;12.18;69.91;100381.89;1746682;81;21526;-78
2021/08/03 01:32:57;;;;;;;9.60;4.47;;;;;;;12.13;70.04;100380.28;1761716;81;21058;-78
2021/08/03 01:35:24;;;;;;;10.63;4.70;;;;;;;12.07;70.14;100385.83;1733711;81;21077;-77
2021/08/03 01:37:50;;;;;;;7.67;4.50;;;;;;;12.01;70.25;100389.23;1761556;81;21074;-78
2021/08/03 01:40:16;;;;;;;7.35;4.42;;;;;;;11.96;70.39;100389.76;1761736;81;21097;-78
2021/08/03 01:42:42;;;;;;;7.75;5.12;;;;;;;11.95;70.50;100393.96;1761586;81;21092;-77
2021/08/03 01:45:12;;;;;;;8.15;4.25;;;;;;;11.90;70.62;100396.33;1761616;81;21014;-78
2021/08/03 01:47:38;;;;;;;8.93;5.00;;;;;;;11.87;70.72;100394.02;1761371;80;21053;-78
2021/08/03 01:50:07;;;;;;;7.70;4.65;;;;;;;11.85;70.83;100401.39;1761770;81;21041;-77
2021/08/03 01:52:33;;;;;;;6.92;4.78;;;;;;;11.79;70.98;100402.08;1761279;81;21050;-77
2021/08/03 01:55:00;;;;;;;9.05;4.20;;;;;;;11.75;71.09;100399.46;1734019;81;21033;-78
2021/08/03 01:57:26;;;;;;;8.98;5.65;;;;;;;11.69;71.18;100401.45;1761490;81;21065;-77
2021/08/03 01:59:54;;;;;;;10.63;5.10;;;;;;;11.66;71.33;100405.81;1761586;81;21081;-78
2021/08/03 02:02:20;;;;;;;10.20;5.80;;;;;;;11.62;71.43;100404.50;1761718;81;21050;-78
2021/08/03 02:04:47;;;;;;;10.80;5.87;;;;;;;11.59;71.57;100412.88;1761666;81;21046;-78
2021/08/03 02:07:15;;;;;;;12.45;5.35;;;;;;;11.53;71.65;100407.24;1762057;81;21086;-78
2021/08/03 02:09:43;;;;;;;9.05;4.97;;;;;;;11.49;71.78;100407.76;1761369;80;20994;-78
2021/08/03 02:12:12;;;;;;;12.33;6.45;;;;;;;11.44;71.88;100409.61;1761408;81;21082;-78
2021/08/03 02:14:45;;;;;;;11.93;5.42;;;;;;;11.39;71.99;100413.33;1761020;81;21050;-77
2021/08/03 02:17:07;;;;;;;9.33;6.00;;;;;;;11.36;72.10;100415.52;1761183;80;21065;-78
2021/08/03 02:19:34;;;;;;;9.68;5.47;;;;;;;11.33;72.21;100422.01;1761767;81;21936;-78
2021/08/03 02:22:00;;;;;;;13.40;6.08;;;;;;;11.31;72.30;100420.53;1760700;81;21121;-77
2021/08/03 02:24:26;;;;;;;11.22;5.15;;;;;;;11.28;72.41;100418.21;1756399;81;21034;-77
2021/08/03 02:26:52;;;;;;;10.10;6.80;;;;;;;11.23;72.50;100424.56;1755451;81;21051;-78
2021/08/03 02:29:18;;;;;;;12.33;7.10;;;;;;;11.23;72.60;100424.56;1756497;81;21046;-77
2021/08/03 02:31:48;;;;;;;12.63;6.03;;;;;;;11.22;72.70;100427.77;1756582;81;21129;-78
2021/08/03 02:34:30;;;;;;;11.00;6.08;;;;;;;11.19;72.81;100434.75;1756600;81;21022;-77
2021/08/03 02:37:00;;;;;;;12.78;6.00;;;;;;;11.17;72.90;100431.94;1756602;81;21018;-77
2021/08/03 02:39:26;;;;;;;12.23;6.28;;;;;;;11.13;73.02;100431.45;1756545;81;21058;-77
2021/08/03 02:41:53;;;;;;;12.45;6.08;;;;;;;11.14;73.11;100439.80;1756513;81;20998;-77
2021/08/03 02:44:19;;;;;;;8.75;5.47;;;;;;;11.12;73.20;100443.12;1756850;81;21484;-77
2021/08/03 02:46:46;;;;;;;12.37;5.70;;;;;;;11.07;73.29;100445.49;1756871;81;21014;-78
2021/08/03 02:49:15;;;;;;;11.63;5.60;;;;;;;11.06;73.35;100443.81;1756563;81;21014;-77
2021/08/03 02:51:41;;;;;;;11.12;6.12;;;;;;;11.04;73.46;100449.84;1756506;81;21049;-77
2021/08/03 02:54:18;;;;;;;15.38;6.45;;;;;;;11.03;73.56;100446.83;1756747;81;21069;-77
2021/08/03 02:56:48;;;;;;;15.05;6.55;;;;;;;11.01;73.62;100448.86;1756997;81;21850;-77
2021/08/03 02:59:14;;;;;;;12.05;6.58;;;;;;;10.99;73.72;100448.17;1759235;81;21249;-77
2021/08/03 03:01:40;;;;;;;16.60;6.22;;;;;;;10.95;73.81;100444.18;1728811;81;21035;-77
2021/08/03 03:04:23;;;;;;;9.18;5.67;;;;;;;10.93;73.89;100447.53;1758706;81;21032;-78
2021/08/03 03:06:54;;;;;;;14.83;6.58;;;;;;;10.90;73.97;100442.55;1758899;81;21004;-80
2021/08/03 03:09:24;;;;;;;10.45;5.58;;;;;;;10.90;74.06;100446.55;1757868;80;21161;-78
2021/08/03 03:11:53;;;;;;;9.83;6.20;;;;;;;10.89;74.14;100444.37;1758770;81;21107;-78
2021/08/03 03:14:21;;;;;;;16.57;7.35;;;;;;;10.89;74.21;100440.87;1759014;81;21087;-77
2021/08/03 03:16:47;;;;;;;11.63;6.37;;;;;;;10.88;74.30;100443.20;1759051;81;21036;-77
2021/08/03 03:19:16;;;;;;;10.60;6.47;;;;;;;10.88;74.38;100451.20;1758882;81;21064;-77
2021/08/03 03:21:42;;;;;;;15.20;6.60;;;;;;;10.89;74.46;100450.20;1759185;81;21357;-78
2021/08/03 03:24:08;;;;;;;13.53;6.05;;;;;;;10.90;74.54;100449.22;1780924;80;21062;-78
2021/08/03 03:26:35;;;;;;;11.70;6.10;;;;;;;10.89;74.63;100443.54;1783960;80;21519;-77
2021/08/03 03:29:01;;;;;;;11.22;6.03;;;;;;;10.89;74.71;100447.54;1784451;80;21101;-78
2021/08/03 03:31:29;;;;;;;9.55;5.83;;;;;;;10.91;74.80;100454.86;1784115;80;21117;-77
2021/08/03 03:33:55;;;;;;;9.78;5.95;;;;;;;10.92;74.86;100453.86;1784370;80;21550;-78
2021/08/03 03:36:28;;;;;;;8.03;5.87;;;;;;;10.97;74.94;100455.53;1783969;80;21023;-78
2021/08/03 03:38:54;;;;;;;14.93;6.90;;;;;;;10.99;75.02;100454.84;1784247;80;21034;-78
2021/08/03 03:41:27;;;;;;;9.33;6.67;;;;;;;11.01;75.09;100453.66;1751283;80;20988;-77
2021/08/03 03:43:53;;;;;;;8.33;6.12;;;;;;;11.05;75.17;100450.15;1784089;80;21070;-77
2021/08/03 03:46:22;;;;;;;12.60;6.50;;;;;;;11.07;75.25;100456.16;1784398;80;21390;-77
2021/08/03 03:48:56;;;;;;;10.28;6.50;;;;;;;11.07;75.32;100453.50;1784057;80;20995;-78
2021/08/03 03:51:27;;;;;;;15.53;6.62;;;;;;;11.11;75.39;100449.48;1776019;79;20956;-78
2021/08/03 03:53:57;;;;;;;12.47;7.28;;;;;;;11.17;75.47;100450.13;1784208;80;21022;-78
2021/08/03 03:56:27;;;;;;;14.43;7.17;;;;;;;11.21;75.51;100442.10;1752000;80;21007;-77
2021/08/03 03:59:00;;;;;;;12.88;6.37;;;;;;;11.28;75.59;100448.41;1783380;79;22307;-77
2021/08/03 04:01:26;;;;;;;17.40;7.78;;;;;;;11.35;75.66;100449.39;1783866;80;21014;-78
2021/08/03 04:03:55;;;;;;;15.05;8.05;;;;;;;11.60;75.83;100460.78;1784312;80;21051;-77
2021/08/03 04:06:21;;;;;;;17.32;7.70;;;;;;;12.02;76.02;100455.05;1784065;80;21477;-78
2021/08/03 04:08:47;;;;;;;12.98;5.87;;;;;;;13.13;76.34;100461.40;1784065;80;21054;-78
2021/08/03 04:11:16;;;;;;;8.35;4.83;;;;;;;14.28;76.11;100460.50;1783950;80;21135;-78
2021/08/03 04:13:43;;;;;;;10.93;4.42;;;;;;;15.39;75.61;100456.44;1784049;80;21089;-78
2021/08/03 04:16:10;;;;;;;11.97;4.10;;;;;;;16.48;75.09;100462.03;1783953;80;20996;-78
2021/08/03 04:18:36;;;;;;;9.03;4.03;;;;;;;17.55;74.44;100466.23;1784317;80;21069;-79
2021/08/03 04:21:02;;;;;;;8.60;5.25;;;;;;;18.52;73.75;100459.16;1784250;80;21055;-80
2021/08/03 04:23:28;;;;;;;5.17;3.65;;;;;;;19.22;72.87;100457.34;1783807;80;21115;-79
2021/08/03 04:25:54;;;;;;;4.47;3.20;;;;;;;19.75;71.96;100460.28;1784135;80;21019;-79
2021/08/03 04:28:20;;;;;;;5.35;3.10;;;;;;;20.43;71.31;100463.50;1751476;80;21043;-79
2021/08/03 04:30:47;;;;;;;7.85;2.92;;;;;;;20.94;70.36;100467.42;1784072;80;21079;-79
2021/08/03 04:33:13;;;;;;;9.83;2.90;;;;;;;21.39;69.30;100468.47;1784027;80;21460;-79
2021/08/03 04:35:39;;;;;;;3.85;3.10;;;;;;;21.84;68.56;100473.20;1784270;80;21108;-79
2021/08/03 04:38:05;;;;;;;7.35;3.90;;;;;;;22.01;67.45;100468.67;1784141;80;21007;-79
2021/08/03 04:40:31;;;;;;;7.08;3.10;;;;;;;22.41;66.34;100463.95;1783944;80;21100;-79
2021/08/03 04:42:57;;;;;;;7.17;2.70;;;;;;;22.62;65.11;100465.15;1784176;80;21007;-79
2021/08/03 04:45:23;;;;;;;6.25;3.70;;;;;;;22.90;64.26;100461.53;1783636;80;21468;-80
2021/08/03 04:47:51;;;;;;;6.70;4.65;;;;;;;23.26;63.12;100455.51;1784018;80;22232;-79
2021/08/03 04:50:22;;;;;;;6.55;2.60;;;;;;;23.59;62.13;100456.52;1783674;80;21035;-79
2021/08/03 04:52:48;;;;;;;2.60;2.35;;;;;;;24.00;60.71;100453.16;1784141;80;21011;-79
2021/08/03 04:55:14;;;;;;;2.70;2.45;;;;;;;23.28;59.71;100452.55;1783945;80;21015;-79
2021/08/03 04:57:40;;;;;;;3.62;2.87;;;;;;;22.12;59.41;100455.58;1784114;80;20995;-79
2021/08/03 05:00:08;;;;;;;4.17;2.65;;;;;;;21.16;59.67;100453.59;1784352;80;21282;-79
2021/08/03 05:02:35;;;;;;;3.77;2.60;;;;;;;20.53;59.87;100462.92;1762741;80;21501;-79
2021/08/03 05:05:03;;;;;;;5.58;2.85;;;;;;;19.97;60.03;100462.48;1753111;80;21040;-79
2021/08/03 05:07:29;;;;;;;3.77;2.87;;;;;;;19.23;60.24;100463.59;1759474;80;21011;-79
2021/08/03 05:10:06;;;;;;;3.62;2.80;;;;;;;18.79;60.44;100457.36;1776513;78;21492;-79
2021/08/03 05:12:32;;;;;;;8.33;3.10;;;;;;;18.37;60.58;100464.33;1785407;80;21184;-78
2021/08/03 05:15:02;;;;;;;6.92;2.65;;;;;;;18.00;60.81;100465.20;1770375;80;21414;-78
2021/08/03 05:17:29;;;;;;;4.80;2.95;;;;;;;17.80;61.02;100468.55;1750001;81;21094;-79
2021/08/03 05:19:56;;;;;;;7.37;3.10;;;;;;;17.65;61.29;100465.28;1707629;81;21016;-78
2021/08/03 05:22:23;;;;;;;5.60;2.72;;;;;;;17.65;61.46;100461.23;1736716;82;21538;-78
2021/08/03 05:24:49;;;;;;;5.00;2.45;;;;;;;18.23;61.60;100461.41;1712875;82;21244;-79
2021/08/03 05:27:15;;;;;;;5.08;3.17;;;;;;;18.88;61.57;100457.91;1720771;82;21018;-78
2021/08/03 05:29:41;;;;;;;6.92;3.17;;;;;;;18.95;61.53;100458.68;1775536;80;21007;-78
2021/08/03 05:32:07;;;;;;;5.83;3.58;;;;;;;18.73;61.50;100455.55;1755517;80;21055;-79
2021/08/03 05:34:33;;;;;;;9.15;3.37;;;;;;;18.48;61.52;100463.63;1753213;80;21059;-78
2021/08/03 05:37:04;;;;;;;8.90;3.40;;;;;;;18.21;61.58;100466.22;1781817;80;21141;-78
2021/08/03 05:39:30;;;;;;;8.53;3.92;;;;;;;18.12;61.70;100463.45;1769570;80;21530;-78
2021/08/03 05:41:58;;;;;;;5.95;3.27;;;;;;;18.03;61.77;100466.12;1757256;80;21030;-78
2021/08/03 05:44:24;;;;;;;9.80;3.10;;;;;;;18.04;61.81;100463.73;1780861;80;21101;-77
2021/08/03 05:46:50;;;;;;;8.88;2.60;;;;;;;17.94;61.75;100466.88;1756058;80;21457;-78
2021/08/03 05:49:16;;;;;;;4.55;2.20;;;;;;;17.88;61.81;100469.62;1751015;80;21748;-78
2021/08/03 05:51:42;;;;;;;13.88;5.08;;;;;;;17.92;61.91;100470.84;1772295;80;21038;-78
2021/08/03 05:54:08;;;;;;;11.63;4.85;;;;;;;18.00;61.96;100469.77;1777158;80;20987;-78
2021/08/03 05:56:34;;;;;;;5.33;2.90;;;;;;;18.05;61.88;100464.56;1750531;82;21044;-78
2021/08/03 05:59:00;;;;;;;5.90;2.67;;;;;;;18.14;61.92;100465.44;1766433;80;21018;-79
2021/08/03 06:01:26;;;;;;;4.47;2.70;;;;;;;18.23;61.92;100470.03;1768437;80;21506;-78
2021/08/03 06:03:52;;;;;;;4.72;2.10;;;;;;;18.37;61.89;100462.98;1765705;80;21010;-79
2021/08/03 06:06:20;;;;;;;6.95;2.83;;;;;;;18.45;61.87;100459.19;1769354;80;21052;-78
2021/08/03 06:08:46;;;;;;;5.05;2.42;;;;;;;18.50;61.81;100462.59;1766458;80;21526;-78
2021/08/03 06:11:25;;;;;;;5.05;2.67;;;;;;;18.52;61.81;100460.52;1751838;80;21074;-79
2021/08/03 06:13:53;;;;;;;6.67;2.40;;;;;;;18.59;61.79;100462.11;1763377;80;21027;-78
2021/08/03 06:16:20;;;;;;;4.85;2.00;;;;;;;18.67;61.71;100465.07;1780824;80;20988;-79
2021/08/03 06:18:48;;;;;;;2.58;2.00;;;;;;;18.67;61.61;100461.02;1779807;80;21055;-79
2021/08/03 06:21:15;;;;;;;3.10;2.02;;;;;;;18.65;61.55;100466.63;1752788;80;21048;-79
2021/08/03 06:23:45;;;;;;;7.50;3.77;;;;;;;18.63;61.46;100459.80;1765478;80;21030;-76
2021/08/03 06:26:12;;;;;;;6.70;2.17;;;;;;;18.78;61.42;100463.00;1738877;82;21452;-77
2021/08/03 06:28:38;;;;;;;3.67;2.20;;;;;;;18.81;61.24;100463.39;1723525;82;21110;-78
2021/08/03 06:31:04;;;;;;;6.25;2.02;;;;;;;18.77;61.18;100464.05;1756552;81;21045;-76
2021/08/03 06:33:30;;;;;;;2.15;1.95;;;;;;;18.72;61.10;100466.05;1741666;81;21440;-77
2021/08/03 06:35:56;;;;;;;3.85;1.80;;;;;;;18.78;61.00;100464.35;1708364;83;21150;-77
2021/08/03 06:38:23;;;;;;;4.55;2.30;;;;;;;18.78;60.97;100464.35;1750102;81;21087;-78
2021/08/03 06:41:13;;;;;;;2.87;1.67;;;;;;;18.76;60.89;100467.27;1749520;81;21582;-78
2021/08/03 06:43:47;;;;;;;4.78;1.85;;;;;;;18.73;60.86;100462.83;1716042;81;21066;-79
2021/08/03 06:46:13;;;;;;;4.65;2.22;;;;;;;18.61;60.84;100465.96;1743465;81;21062;-78
2021/08/03 06:48:50;;;;;;;5.60;2.10;;;;;;;18.57;60.82;100463.39;1745410;81;21027;-79
2021/08/03 06:51:17;;;;;;;6.50;2.10;;;;;;;18.55;60.83;100461.42;1764673;81;21949;-79
2021/08/03 06:53:47;;;;;;;9.73;1.72;;;;;;;18.44;60.75;100467.80;1753251;81;21030;-79
2021/08/03 06:56:23;;;;;;;;;;;;;;;18.36;60.77;100464.05;1754490;80;21685;-78
2021/08/03 06:59:05;;;;;;;5.62;1.90;;;;;;;18.34;60.73;100462.59;1750121;80;20499;-80
2021/08/03 07:01:44;;;;;;;5.15;1.95;;;;;;;18.35;60.80;100461.03;1721939;82;21042;-80
2021/08/03 07:04:24;;;;;;;5.90;2.72;;;;;;;18.38;60.84;100463.29;1729629;82;21922;-79
2021/08/03 07:06:55;;;;;;;5.12;2.10;;;;;;;18.41;60.88;100465.55;1731018;81;21052;-80
2021/08/03 07:09:25;;;;;;;4.55;2.42;;;;;;;18.55;60.92;100467.65;1726299;82;21022;-81
2021/08/03 07:11:53;;;;;;;4.10;2.50;;;;;;;18.53;60.88;100467.58;1741807;81;21517;-79
2021/08/03 07:14:19;;;;;;;4.70;2.58;;;;;;;18.56;61.02;100468.48;1720755;83;21053;-80
2021/08/03 07:16:46;;;;;;;5.60;2.40;;;;;;;18.62;61.06;100474.34;1721859;82;21161;-79
2021/08/03 07:19:12;;;;;;;5.20;2.27;;;;;;;18.73;61.06;100470.94;1725007;82;22540;-78
2021/08/03 07:21:39;;;;;;;5.55;2.30;;;;;;;18.87;61.05;100464.36;1767332;80;21035;-77
2021/08/03 07:24:05;;;;;;;7.75;2.10;;;;;;;19.03;61.04;100471.91;1741543;80;21089;-77
2021/08/03 07:26:31;;;;;;;8.23;4.62;;;;;;;19.31;60.95;100471.41;1772137;80;21007;-79
2021/08/03 07:28:57;;;;;;;4.65;2.92;;;;;;;19.61;60.85;100470.14;1754132;80;22044;-79
2021/08/03 07:31:23;;;;;;;4.78;3.00;;;;;;;19.87;60.71;100475.23;1765543;80;21059;-78
2021/08/03 07:33:49;;;;;;;6.62;3.00;;;;;;;19.93;60.46;100477.02;1752709;80;21004;-79
2021/08/03 07:36:15;;;;;;;4.60;2.60;;;;;;;20.07;60.37;100485.25;1755325;80;21075;-79
2021/08/03 07:38:43;;;;;;;4.90;2.02;;;;;;;20.43;60.26;100482.46;1759377;80;21460;-78
2021/08/03 07:41:09;;;;;;;4.08;1.87;;;;;;;20.92;60.00;100488.53;1773183;80;21144;-78
2021/08/03 07:43:35;;;;;;;4.35;2.33;;;;;;;21.28;59.61;100485.61;1767421;80;21066;-79
2021/08/03 07:46:02;;;;;;;4.03;1.92;;;;;;;21.72;59.29;100481.37;1754890;81;21010;-78
2021/08/03 07:48:28;;;;;;;5.28;2.47;;;;;;;22.18;58.83;100479.57;1722667;82;21052;-79
2021/08/03 07:50:54;;;;;;;2.58;1.80;;;;;;;22.41;58.21;100485.70;1724798;83;21538;-79
2021/08/03 07:53:20;;;;;;;6.03;1.90;;;;;;;22.65;57.71;100486.41;1726660;83;22332;-79
2021/08/03 07:55:46;;;;;;;3.33;1.40;;;;;;;22.65;56.91;100485.57;1724473;83;20967;-78
2021/08/03 07:58:12;;;;;;;4.37;1.65;;;;;;;22.64;56.34;100489.35;1733016;81;21022;-79
2021/08/03 08:00:38;;;;;;;15.72;2.45;;;;;;;22.79;55.75;100484.20;1718600;83;21113;-79
2021/08/03 08:03:04;;;;;;;11.18;1.60;;;;;;;23.00;55.44;100487.53;1694982;83;21145;-79
2021/08/03 08:05:32;;;;;;;2.15;1.40;;;;;;;23.03;54.87;100487.56;1763092;80;20880;-79
2021/08/03 08:07:58;;;;;;;1.25;1.15;;;;;;;23.00;54.36;100484.81;1771898;80;21011;-79
2021/08/03 08:10:24;;;;;;;4.20;1.25;;;;;;;23.11;53.92;100483.89;1772650;80;20962;-79
2021/08/03 08:12:50;;;;;;;3.47;1.42;;;;;;;23.11;53.26;100489.86;1771737;80;21559;-79
2021/08/03 08:15:17;;;;;;;4.40;1.67;;;;;;;22.76;52.83;100490.14;1755942;80;21542;-79
2021/08/03 08:17:43;;;;;;;3.55;1.62;;;;;;;22.59;52.67;100495.52;1772985;80;22474;-79
2021/08/03 08:20:13;;;;;;;6.28;2.08;;;;;;;22.76;52.51;100484.14;1773428;80;21206;-79
2021/08/03 08:22:38;;;;;;;3.87;1.77;;;;;;;22.65;52.17;100488.30;1773593;80;20999;-79
2021/08/03 08:25:07;;;;;;;4.72;1.87;;;;;;;22.43;51.97;100490.08;1771608;80;21544;-79
2021/08/03 08:27:32;;;;;;;4.15;1.50;;;;;;;22.47;52.01;100491.23;1769788;81;20975;-80
2021/08/03 08:30:00;;;;;;;6.95;2.20;;;;;;;22.41;51.71;100492.49;1770067;81;21632;-80
2021/08/03 08:32:26;;;;;;;5.05;1.80;;;;;;;22.17;51.64;100492.33;1770606;80;21012;-79
2021/08/03 08:34:52;;;;;;;6.72;2.00;;;;;;;22.04;51.59;100497.23;1770529;81;21058;-79
2021/08/03 08:37:18;;;;;;;5.72;1.47;;;;;;;21.90;51.62;100492.09;1770326;81;21089;-79
2021/08/03 08:39:44;;;;;;;6.12;1.95;;;;;;;21.87;51.66;100494.44;1770108;81;21435;-79
2021/08/03 08:42:10;;;;;;;4.85;1.50;;;;;;;22.04;51.83;100488.56;1770511;81;22319;-79
2021/08/03 08:44:38;;;;;;;6.58;1.72;;;;;;;22.27;51.77;100487.64;1770418;81;21038;-79
2021/08/03 08:47:07;;;;;;;3.10;1.65;;;;;;;22.43;51.65;100486.83;1770433;81;21011;-80
2021/08/03 08:49:33;;;;;;;2.95;1.50;;;;;;;22.25;51.51;100489.23;1770898;81;21129;-79
2021/08/03 08:51:59;;;;;;;3.33;1.37;;;;;;;22.15;51.50;100488.22;1770385;81;21007;-80
2021/08/03 08:54:25;;;;;;;3.40;1.30;;;;;;;22.39;51.57;100489.73;1770458;81;21651;-80
2021/08/03 08:56:52;;;;;;;6.45;1.77;;;;;;;22.78;51.30;100485.27;1770058;81;20972;-80
2021/08/03 08:59:18;;;;;;;2.05;1.27;;;;;;;23.12;51.01;100487.41;1770557;81;21307;-80
2021/08/03 09:01:44;;;;;;;2.98;1.32;;;;;;;23.22;50.53;100492.46;1770490;81;21602;-79
2021/08/03 09:04:10;;;;;;;12.13;1.32;;;;;;;23.07;50.22;100484.63;1770698;81;20892;-80
2021/08/03 09:06:36;;;;;;;4.20;1.20;;;;;;;23.10;50.01;100486.31;1770392;81;21761;-80
2021/08/03 09:09:15;;;;;;;3.00;1.22;;;;;;;23.13;49.79;100480.91;1742122;81;21039;-80
2021/08/03 09:11:45;;;;;;;;;;;;;;;23.19;49.26;100476.64;1772584;81;21019;-80
2021/08/03 09:14:11;;;;;;;3.60;1.50;;;;;;;23.06;49.15;100483.80;1770484;81;20164;-80
2021/08/03 09:16:47;;;;;;;4.70;1.75;;;;;;;23.12;49.15;100477.35;1770515;81;21011;-80
2021/08/03 09:19:40;;;;;;;2.72;1.30;;;;;;;23.26;48.96;100482.72;1770545;81;22382;-80
2021/08/03 09:22:17;;;;;;;4.62;1.60;;;;;;;23.26;48.75;100486.81;1770269;81;21039;-80
2021/08/03 09:24:46;;;;;;;2.33;1.15;;;;;;;22.98;48.48;100482.85;1770700;80;21066;-79
2021/08/03 09:27:39;;;;;;;3.65;1.22;;;;;;;22.79;48.34;100483.67;1726706;83;21452;-80
2021/08/03 09:30:07;;;;;;;2.58;1.20;;;;;;;22.60;48.08;100493.63;1770007;80;20907;-80
2021/08/03 09:32:36;;;;;;;3.45;1.40;;;;;;;22.51;47.91;100495.12;1770668;81;21668;-80
2021/08/03 09:35:09;;;;;;;;;;;;;;;22.44;47.75;100497.17;1772938;81;21000;-80
2021/08/03 09:37:35;;;;;;;5.83;1.40;;;;;;;22.53;47.71;100488.89;1770416;81;20160;-80
2021/08/03 09:40:02;;;;;;;3.12;1.42;;;;;;;22.48;47.66;100490.18;1770196;81;21137;-80
2021/08/03 09:42:28;;;;;;;5.87;1.47;;;;;;;22.43;47.68;100492.80;1770547;80;21051;-79
2021/08/03 09:45:03;;;;;;;8.48;1.65;;;;;;;22.34;47.58;100485.03;1742434;81;21753;-80
2021/08/03 09:47:31;;;;;;;4.75;1.35;;;;;;;22.25;47.53;100491.95;1769776;81;20964;-80
2021/08/03 09:49:59;;;;;;;6.47;1.80;;;;;;;22.19;47.49;100494.28;1770528;81;21447;-80
2021/08/03 09:52:28;;;;;;;6.45;1.60;;;;;;;22.06;47.41;100487.77;1722241;79;21109;-79
2021/08/03 09:55:19;;;;;;;4.58;1.80;;;;;;;21.95;47.40;100490.02;1627159;87;21119;-80
2021/08/03 09:57:46;;;;;;;7.58;2.10;;;;;;;21.88;47.50;100490.67;1650202;86;22162;-80
2021/08/03 10:00:37;;;;;;;7.17;1.98;;;;;;;21.95;47.68;100488.67;1618126;88;21059;-80
2021/08/03 10:03:04;;;;;;;5.40;1.50;;;;;;;22.09;47.75;100487.31;1615251;88;21086;-80
2021/08/03 10:05:31;;;;;;;5.50;1.98;;;;;;;22.16;47.86;100481.72;1615265;88;21082;-79
2021/08/03 10:07:57;;;;;;;6.28;1.72;;;;;;;22.21;47.83;100487.23;1594498;88;21449;-80
2021/08/03 10:10:23;;;;;;;3.83;1.60;;;;;;;22.12;47.81;100490.89;1619861;87;22335;-80
2021/08/03 10:12:49;;;;;;;12.37;1.60;;;;;;;22.19;47.96;100498.36;1620406;88;21059;-80
2021/08/03 10:15:15;;;;;;;6.87;1.65;;;;;;;22.29;47.95;100497.72;1620352;88;21048;-80
2021/08/03 10:17:42;;;;;;;3.10;1.35;;;;;;;22.40;47.95;100489.51;1615514;88;20991;-80
2021/08/03 10:20:11;;;;;;;2.87;1.40;;;;;;;22.45;47.87;100488.75;1615471;88;21098;-81
2021/08/03 10:22:44;;;;;;;3.77;1.67;;;;;;;22.41;47.93;100485.70;1615353;88;21628;-80
2021/08/03 10:25:15;;;;;;;8.03;1.92;;;;;;;22.32;48.12;100491.26;1615290;87;21042;-80
2021/08/03 10:27:51;;;;;;;4.40;1.65;;;;;;;22.04;48.13;100492.62;1616048;88;21007;-80
2021/08/03 10:30:34;;;;;;;2.98;1.25;;;;;;;21.90;48.37;100489.91;1651478;87;21621;-80
2021/08/03 10:33:10;;;;;;;4.28;1.70;;;;;;;22.03;48.60;100488.25;1619145;88;21017;-81
2021/08/03 10:35:43;;;;;;;3.33;1.70;;;;;;;22.45;48.64;100485.23;1618945;87;21604;-80
2021/08/03 10:38:14;;;;;;;3.47;1.80;;;;;;;22.63;48.51;100473.57;1619185;88;21002;-80
2021/08/03 10:40:56;;;;;;;2.42;1.60;;;;;;;22.62;48.48;100473.84;1619243;87;21044;-81
2021/08/03 10:43:39;;;;;;;5.12;1.65;;;;;;;22.38;48.45;100473.97;1618744;88;21508;-75
2021/08/03 10:46:17;;;;;;;5.65;1.65;;;;;;;22.55;48.47;100475.89;1617548;87;21441;-75
2021/08/03 10:48:43;;;;;;;2.80;1.40;;;;;;;22.58;48.41;100463.16;1619252;88;21517;-75
2021/08/03 10:51:24;;;;;;;4.70;1.50;;;;;;;22.48;48.35;100465.19;1620935;87;21040;-74
2021/08/03 10:54:05;;;;;;;3.52;1.77;;;;;;;22.30;48.25;100464.05;1609569;87;21002;-75
2021/08/03 10:56:57;;;;;;;5.83;1.72;;;;;;;22.15;48.32;100467.31;1602744;88;21480;-75
2021/08/03 10:59:38;;;;;;;6.08;1.72;;;;;;;22.08;48.40;100463.92;1602181;88;21089;-72
2021/08/03 11:02:07;;;;;;;9.15;2.85;;;;;;;22.09;48.42;100464.75;1601861;88;21397;-72
2021/08/03 11:04:53;;;;;;;3.55;1.80;;;;;;;22.08;48.44;100463.92;1602473;88;21036;-72
2021/08/03 11:07:30;;;;;;;5.65;1.70;;;;;;;22.13;48.42;100457.20;1602647;88;21052;-72
2021/08/03 11:09:59;;;;;;;3.83;1.57;;;;;;;22.09;48.18;100454.71;1602060;87;21132;-72
2021/08/03 11:12:47;;;;;;;6.15;2.00;;;;;;;21.99;48.16;100457.21;1605588;88;21016;-73
2021/08/03 11:15:33;;;;;;;4.12;1.55;;;;;;;22.15;48.22;100454.25;1600192;88;21464;-73
2021/08/03 11:18:07;;;;;;;5.20;1.80;;;;;;;22.36;48.03;100451.66;1612815;87;21021;-73
2021/08/03 11:20:40;;;;;;;3.90;1.45;;;;;;;22.44;48.09;100450.97;1619243;87;21429;-73
2021/08/03 11:23:14;;;;;;;5.45;1.70;;;;;;;22.50;48.10;100450.80;1613704;88;21472;-73
2021/08/03 11:25:41;;;;;;;2.65;1.52;;;;;;;22.59;48.10;100437.63;1605329;88;21037;-73
2021/08/03 11:28:22;;;;;;;9.95;1.95;;;;;;;22.77;48.04;100429.22;1608808;88;22793;-73
2021/08/03 11:30:51;;;;;;;4.15;1.52;;;;;;;23.11;47.92;100430.83;1610740;88;21490;-73
2021/08/03 11:33:19;;;;;;;7.55;1.98;;;;;;;23.38;47.65;100426.82;1601878;88;21057;-72
2021/08/03 11:35:45;;;;;;;5.15;1.57;;;;;;;23.37;47.27;100424.63;1603620;88;21356;-73